Surrey, Canada
Current Conditions -  °F | °C
As of 2:00 PM on Wednesday 28 Jan 2015 (Local Time) from CYVR Reporting Station
Few Clouds Few Clouds  
Wind Chill: 50°   Ceiling: Unl
Heat Index: 50°   Visibility: 20mi
Dew Point: 45°   Wind: 5mph
Humidity: 82%   Direction: 330°NNW
Pressure: 30.4"   Gusts: NA
Location:  49.11°N, 122.83°W
Report Text: CYVR 282200Z 33004KT 260V350 20SM FEW020 FEW043 10/07 A3040 RMK CU1SC1 CONTRAILS SLP293
Loading
Personal Weather Stations






























Interactive Weather Map New forecast layout! Learn more

10-Day Weather Forecast

Advertisements
Track Severe Weather on mobile